地図

経路データ

SID SEASON NUMBER BASIN SUBBASIN NAME ISO_TIME NATURE LAT LON WMO_WIND WMO_PRES WMO_AGENCY TRACK_TYPE DIST2LAND LANDFALL IFLAG USA_AGENCY USA_ATCF_ID USA_LAT USA_LON USA_RECORD USA_STATUS USA_WIND USA_PRES USA_SSHS USA_R34_NE USA_R34_SE USA_R34_SW USA_R34_NW USA_R50_NE USA_R50_SE USA_R50_SW USA_R50_NW USA_R64_NE USA_R64_SE USA_R64_SW USA_R64_NW USA_POCI USA_ROCI USA_RMW USA_EYE TOKYO_LAT TOKYO_LON TOKYO_GRADE TOKYO_WIND TOKYO_PRES TOKYO_R50_DIR TOKYO_R50_LONG TOKYO_R50_SHORT TOKYO_R30_DIR TOKYO_R30_LONG TOKYO_R30_SHORT TOKYO_LAND CMA_LAT CMA_LON CMA_CAT CMA_WIND CMA_PRES HKO_LAT HKO_LON HKO_CAT HKO_WIND HKO_PRES NEWDELHI_LAT NEWDELHI_LON NEWDELHI_GRADE NEWDELHI_WIND NEWDELHI_PRES NEWDELHI_CI NEWDELHI_DP NEWDELHI_POCI REUNION_LAT REUNION_LON REUNION_TYPE REUNION_WIND REUNION_PRES REUNION_TNUM REUNION_CI REUNION_RMW REUNION_R34_NE REUNION_R34_SE REUNION_R34_SW REUNION_R34_NW REUNION_R50_NE REUNION_R50_SE REUNION_R50_SW REUNION_R50_NW REUNION_R64_NE REUNION_R64_SE REUNION_R64_SW REUNION_R64_NW BOM_LAT BOM_LON BOM_TYPE BOM_WIND BOM_PRES BOM_TNUM BOM_CI BOM_RMW BOM_R34_NE BOM_R34_SE BOM_R34_SW BOM_R34_NW BOM_R50_NE BOM_R50_SE BOM_R50_SW BOM_R50_NW BOM_R64_NE BOM_R64_SE BOM_R64_SW BOM_R64_NW BOM_ROCI BOM_POCI BOM_EYE BOM_POS_METHOD BOM_PRES_METHOD NADI_LAT NADI_LON NADI_CAT NADI_WIND NADI_PRES WELLINGTON_LAT WELLINGTON_LON WELLINGTON_WIND WELLINGTON_PRES DS824_LAT DS824_LON DS824_STAGE DS824_WIND DS824_PRES TD9636_LAT TD9636_LON TD9636_STAGE TD9636_WIND TD9636_PRES TD9635_LAT TD9635_LON TD9635_WIND TD9635_PRES TD9635_ROCI NEUMANN_LAT NEUMANN_LON NEUMANN_CLASS NEUMANN_WIND NEUMANN_PRES MLC_LAT MLC_LON MLC_CLASS MLC_WIND MLC_PRES USA_GUST BOM_GUST BOM_GUST_PER REUNION_GUST REUNION_GUST_PER USA_SEAHGT USA_SEARAD_NE USA_SEARAD_SE USA_SEARAD_SW USA_SEARAD_NW STORM_SPEED STORM_DIR
1993276N13249 1993 78 EP MM NORMA 1993-10-02 18:00:00 TS 13.4000 -111.200 25 1008 hurdat_epa main 942 933 O_____________ hurdat_epa EP161993 13.4000 -111.200 TD 25 1008 -1 10 326
1993276N13249 1993 78 EP MM NORMA 1993-10-02 21:00:00 TS 13.8126 -111.490 main 933 925 P_____________ EP161993 13.8126 -111.490 TD 27 1006 -1 10 324
1993276N13249 1993 78 EP MM NORMA 1993-10-03 00:00:00 TS 14.2000 -111.800 30 1005 hurdat_epa main 925 918 O_____________ hurdat_epa EP161993 14.2000 -111.800 TD 30 1005 -1 10 319
1993276N13249 1993 78 EP MM NORMA 1993-10-03 03:00:00 TS 14.5500 -112.143 main 927 927 P_____________ EP161993 14.5500 -112.143 TD 30 1004 -1 10 316
1993276N13249 1993 78 EP MM NORMA 1993-10-03 06:00:00 TS 14.9000 -112.500 30 1003 hurdat_epa main 932 899 O_____________ hurdat_epa EP161993 14.9000 -112.500 TD 30 1003 -1 10 316
1993276N13249 1993 78 EP MM NORMA 1993-10-03 09:00:00 TS 15.2775 -112.858 main 903 872 P_____________ EP161993 15.2775 -112.858 TD 32 1002 -1 11 320
1993276N13249 1993 78 EP MM NORMA 1993-10-03 12:00:00 TS 15.7000 -113.200 35 1002 hurdat_epa main 872 834 O_____________ hurdat_epa EP161993 15.7000 -113.200 TS 35 1002 0 11 326
1993276N13249 1993 78 EP MM NORMA 1993-10-03 15:00:00 TS 16.1999 -113.508 main 834 799 P_____________ EP161993 16.1999 -113.508 TS 37 1001 0 12 330
1993276N13249 1993 78 EP MM NORMA 1993-10-03 18:00:00 TS 16.7000 -113.800 40 1001 hurdat_epa main 799 771 O_____________ hurdat_epa EP161993 16.7000 -113.800 TS 40 1001 0 11 329
1993276N13249 1993 78 EP MM NORMA 1993-10-03 21:00:00 TS 17.1374 -114.100 main 777 758 P_____________ EP161993 17.1374 -114.100 TS 42 1000 0 10 324
1993276N13249 1993 78 EP MM NORMA 1993-10-04 00:00:00 TS 17.5000 -114.400 45 1000 hurdat_epa main 758 745 O_____________ hurdat_epa EP161993 17.5000 -114.400 TS 45 1000 0 9 320
1993276N13249 1993 78 EP MM NORMA 1993-10-04 03:00:00 TS 17.8024 -114.693 main 751 748 P_____________ EP161993 17.8024 -114.693 TS 45 1000 0 8 311
1993276N13249 1993 78 EP MM NORMA 1993-10-04 06:00:00 TS 18.0000 -115.000 45 1000 hurdat_epa main 755 754 O_____________ hurdat_epa EP161993 18.0000 -115.000 TS 45 1000 0 7 295
1993276N13249 1993 78 EP MM NORMA 1993-10-04 09:00:00 TS 18.0874 -115.335 main 769 769 P_____________ EP161993 18.0874 -115.335 TS 42 1000 0 7 279
1993276N13249 1993 78 EP MM NORMA 1993-10-04 12:00:00 TS 18.1000 -115.700 40 1001 hurdat_epa main 800 800 O_____________ hurdat_epa EP161993 18.1000 -115.700 TS 40 1001 0 7 271
1993276N13249 1993 78 EP MM NORMA 1993-10-04 15:00:00 TS 18.1000 -116.108 main 831 831 P_____________ EP161993 18.1000 -116.108 TS 37 1002 0 8 270
1993276N13249 1993 78 EP MM NORMA 1993-10-04 18:00:00 TS 18.1000 -116.500 35 1004 hurdat_epa main 863 863 O_____________ hurdat_epa EP161993 18.1000 -116.500 TS 35 1004 0 7 272
1993276N13249 1993 78 EP MM NORMA 1993-10-04 21:00:00 TS 18.1274 -116.830 main 883 883 P_____________ EP161993 18.1274 -116.830 TS 32 1005 -1 6 280
1993276N13249 1993 78 EP MM NORMA 1993-10-05 00:00:00 TS 18.2000 -117.100 30 1007 hurdat_epa main 891 888 O_____________ hurdat_epa EP161993 18.2000 -117.100 TD 30 1007 -1 5 292
1993276N13249 1993 78 EP MM NORMA 1993-10-05 03:00:00 TS 18.3199 -117.323 main 894 889 P_____________ EP161993 18.3199 -117.323 TD 30 1007 -1 5 308
1993276N13249 1993 78 EP MM NORMA 1993-10-05 06:00:00 TS 18.5000 -117.500 30 1008 hurdat_epa main 889 878 O_____________ hurdat_epa EP161993 18.5000 -117.500 TD 30 1008 -1 5 321
1993276N13249 1993 78 EP MM NORMA 1993-10-05 09:00:00 TS 18.7200 -117.665 main 885 866 P_____________ EP161993 18.7200 -117.665 TD 30 1008 -1 6 330
1993276N13249 1993 78 EP MM NORMA 1993-10-05 12:00:00 TS 19.0000 -117.800 30 1009 hurdat_epa main 866 849 O_____________ hurdat_epa EP161993 19.0000 -117.800 TD 30 1009 -1 7 339
1993276N13249 1993 78 EP MM NORMA 1993-10-05 15:00:00 TS 19.3350 -117.915 main 849 825 P_____________ EP161993 19.3350 -117.915 TD 30 1009 -1 7 345
1993276N13249 1993 78 EP MM NORMA 1993-10-05 18:00:00 TS 19.7000 -118.000 30 1010 hurdat_epa main 825 801 O_____________ hurdat_epa EP161993 19.7000 -118.000 TD 30 1010 -1 7 350
1993276N13249 1993 78 EP MM NORMA 1993-10-05 21:00:00 TS 20.0650 -118.050 main 801 779 P_____________ EP161993 20.0650 -118.050 TD 30 1010 -1 7 352
1993276N13249 1993 78 EP MM NORMA 1993-10-06 00:00:00 TS 20.4000 -118.100 30 1011 hurdat_epa main 779 765 O_____________ hurdat_epa EP161993 20.4000 -118.100 TD 30 1011 -1 6 348
1993276N13249 1993 78 EP MM NORMA 1993-10-06 03:00:00 TS 20.6725 -118.193 main 766 760 P_____________ EP161993 20.6725 -118.193 TD 30 1011 -1 5 340
1993276N13249 1993 78 EP MM NORMA 1993-10-06 06:00:00 TS 20.9000 -118.300 30 1012 hurdat_epa main 761 755 O_____________ hurdat_epa EP161993 20.9000 -118.300 TD 30 1012 -1 5 336
1993276N13249 1993 78 EP MM NORMA 1993-10-06 09:00:00 TS 21.1100 -118.401 main 757 751 P_____________ EP161993 21.1150 -118.400 TD 27 1012 -1 4 335
1993276N13249 1993 78 EP MM NORMA 1993-10-06 12:00:00 TS 21.3000 -118.500 25 1013 hurdat_epa main 753 747 O_____________ hurdat_epa EP161993 21.3000 -118.500 TD 25 1013 -1 4 332
1993276N13249 1993 78 EP MM NORMA 1993-10-06 15:00:00 NR 21.4575 -118.600 main 750 750 P_____________ EP161993 21.4575 -118.600 TD 25 -1 4 329
1993276N13249 1993 78 EP MM NORMA 1993-10-06 18:00:00 NR 21.6000 -118.700 main 754 O_____________ jtwc_ep EP161993 21.6000 -118.700 25 3 326

IBTrACS Databaseについて

本データベースは、米国NOAAが公開する1842年以降の世界の熱帯低気圧のベストトラックデータアーカイブInternational Best Track Archive for Climate Stewardship (IBTrACS)を、ウェブで閲覧しやすい形式に変換したものです。

最終更新日:2021-12-08